createdAt,value
2018-03-29T00:01:35.280Z,44.50
2018-03-29T00:04:03.040Z,37.63
2018-03-29T00:06:31.469Z,42.10
2018-03-29T00:09:01.369Z,38.20
2018-03-29T00:11:29.712Z,41.37
2018-03-29T00:13:57.996Z,41.77
2018-03-29T00:16:27.418Z,41.80
2018-03-29T00:18:56.123Z,42.07
2018-03-29T00:21:24.037Z,39.67
2018-03-29T00:23:52.020Z,41.13
2018-03-29T00:26:20.022Z,42.17
2018-03-29T00:28:48.211Z,37.83
2018-03-29T00:31:18.186Z,41.73
2018-03-29T00:33:46.228Z,37.60
2018-03-29T00:36:14.879Z,39.73
2018-03-29T00:38:42.680Z,38.40
2018-03-29T00:41:15.704Z,41.23
2018-03-29T00:43:45.368Z,38.60
2018-03-29T00:46:15.093Z,37.40
2018-03-29T00:48:43.497Z,43.93
2018-03-29T00:51:11.591Z,47.00
2018-03-29T00:53:47.327Z,45.33
2018-03-29T00:56:16.386Z,41.80
2018-03-29T00:58:45.069Z,44.10
2018-03-29T01:01:13.122Z,41.93
2018-03-29T01:03:41.383Z,42.90
2018-03-29T01:06:09.875Z,47.30
2018-03-29T01:08:37.732Z,43.67
2018-03-29T01:11:06.378Z,45.87
2018-03-29T01:13:34.896Z,39.10
2018-03-29T01:16:03.049Z,44.67
2018-03-29T01:18:30.984Z,37.77
2018-03-29T01:20:59.696Z,43.23
2018-03-29T01:23:27.619Z,35.83
2018-03-29T01:25:55.934Z,40.50
2018-03-29T01:28:23.941Z,40.40
2018-03-29T01:30:53.081Z,39.73
2018-03-29T01:33:22.176Z,36.63
2018-03-29T01:35:50.129Z,38.27
2018-03-29T01:38:17.922Z,38.30
2018-03-29T01:40:45.758Z,39.20
2018-03-29T01:43:13.792Z,39.10
2018-03-29T01:45:41.941Z,36.80
2018-03-29T01:48:10.058Z,40.07
2018-03-29T01:50:38.051Z,40.07
2018-03-29T01:53:06.742Z,39.00
2018-03-29T01:55:34.445Z,38.90
2018-03-29T01:58:02.554Z,42.57
2018-03-29T02:00:30.470Z,39.20
2018-03-29T02:02:58.292Z,36.97
2018-03-29T02:05:26.192Z,36.57
2018-03-29T02:07:54.187Z,41.37
2018-03-29T02:10:22.256Z,36.73
2018-03-29T02:12:50.090Z,38.87
2018-03-29T02:15:17.684Z,42.70
2018-03-29T02:17:48.432Z,37.83
2018-03-29T02:20:17.388Z,37.33
2018-03-29T02:22:45.174Z,42.47
2018-03-29T02:25:13.726Z,35.30
2018-03-29T02:27:42.522Z,38.37
2018-03-29T02:30:10.474Z,37.67
2018-03-29T02:32:38.247Z,36.73
2018-03-29T02:35:06.640Z,34.40
2018-03-29T02:37:34.382Z,36.40
2018-03-29T02:40:02.419Z,33.47
2018-03-29T02:42:30.556Z,36.23
2018-03-29T02:44:58.474Z,37.07
2018-03-29T02:47:26.267Z,31.87
2018-03-29T02:49:54.298Z,33.13
2018-03-29T02:52:22.272Z,32.27
2018-03-29T02:54:50.171Z,33.90
2018-03-29T02:57:18.006Z,28.77
2018-03-29T02:59:46.140Z,32.83
2018-03-29T03:02:15.800Z,32.43
2018-03-29T03:04:43.844Z,28.47
2018-03-29T03:07:11.675Z,30.20
2018-03-29T03:09:42.595Z,27.67
2018-03-29T03:12:10.345Z,30.80
2018-03-29T03:14:38.079Z,30.97
2018-03-29T03:17:06.212Z,28.40
2018-03-29T03:19:34.084Z,32.27
2018-03-29T03:22:01.993Z,26.33
2018-03-29T03:24:31.753Z,29.83
2018-03-29T03:27:00.438Z,29.30
2018-03-29T03:29:28.842Z,27.37
2018-03-29T03:31:56.763Z,24.20
2018-03-29T03:34:24.614Z,28.00
2018-03-29T03:36:53.278Z,27.40
2018-03-29T03:39:21.228Z,29.73
2018-03-29T03:41:50.309Z,27.73
2018-03-29T03:44:19.160Z,27.87
2018-03-29T03:46:47.154Z,28.47
2018-03-29T03:49:15.134Z,25.53
2018-03-29T03:51:43.281Z,28.57
2018-03-29T03:54:11.241Z,27.07
2018-03-29T03:56:39.384Z,26.50
2018-03-29T03:59:07.772Z,25.43
2018-03-29T04:01:35.471Z,25.90
2018-03-29T04:04:03.875Z,27.03
2018-03-29T04:06:31.728Z,23.83
2018-03-29T04:09:01.448Z,22.57
2018-03-29T04:11:29.308Z,22.60
2018-03-29T04:13:57.917Z,28.17
2018-03-29T04:16:26.224Z,26.70
2018-03-29T04:18:54.073Z,21.40
2018-03-29T04:21:21.934Z,24.03
2018-03-29T04:23:50.651Z,23.57
2018-03-29T04:26:18.590Z,23.40
2018-03-29T04:28:46.731Z,22.47
2018-03-29T04:31:15.970Z,20.43
2018-03-29T04:33:47.146Z,22.97
2018-03-29T04:36:15.330Z,22.17
2018-03-29T04:38:43.325Z,21.63
2018-03-29T04:41:11.821Z,21.37
2018-03-29T04:43:41.134Z,21.73
2018-03-29T04:46:08.861Z,22.60
2018-03-29T04:48:37.078Z,21.70
2018-03-29T04:51:06.769Z,23.20
2018-03-29T04:53:34.880Z,21.80
2018-03-29T04:56:03.084Z,23.83
2018-03-29T04:58:33.552Z,20.47
2018-03-29T05:01:02.024Z,20.23
2018-03-29T05:03:30.691Z,19.13
2018-03-29T05:05:59.249Z,24.80
2018-03-29T05:08:27.142Z,19.63
2018-03-29T05:10:55.036Z,19.93
2018-03-29T05:13:25.161Z,19.87
2018-03-29T05:15:53.875Z,21.57
2018-03-29T05:18:24.416Z,19.20
2018-03-29T05:20:54.167Z,21.20
2018-03-29T05:23:22.090Z,21.30
2018-03-29T05:25:50.437Z,24.93
2018-03-29T05:28:18.490Z,24.10
2018-03-29T05:30:47.093Z,22.03
2018-03-29T05:33:15.032Z,22.60
2018-03-29T05:35:43.153Z,18.60
2018-03-29T05:38:11.696Z,20.30
2018-03-29T05:40:40.359Z,14.20
2018-03-29T05:43:09.102Z,6.80
2018-03-29T05:45:37.126Z,3.73
2018-03-29T05:48:05.634Z,2.03
2018-03-29T05:50:34.494Z,1.10
2018-03-29T05:53:02.377Z,1.27
2018-03-29T05:55:31.251Z,0.80
2018-03-29T05:57:59.373Z,0.90
2018-03-29T06:00:27.609Z,0.80
2018-03-29T06:02:57.785Z,0.50
2018-03-29T06:05:25.724Z,0.80
2018-03-29T06:07:53.707Z,1.80
2018-03-29T06:10:21.606Z,0.57
2018-03-29T06:12:50.431Z,0.70
2018-03-29T06:15:18.185Z,0.47
2018-03-29T06:20:58.866Z,0.50
2018-03-29T06:23:28.030Z,0.60
2018-03-29T06:25:55.993Z,0.40
2018-03-29T06:28:24.143Z,0.60
2018-03-29T06:30:53.071Z,0.50
2018-03-29T06:33:22.237Z,3.83
2018-03-29T06:35:51.009Z,0.60
2018-03-29T06:38:18.835Z,0.70
2018-03-29T06:40:46.663Z,0.60
2018-03-29T06:43:14.303Z,0.57
2018-03-29T06:45:42.228Z,0.60
2018-03-29T06:48:10.094Z,3.00
2018-03-29T06:50:38.764Z,0.60
2018-03-29T06:53:07.320Z,0.47
2018-03-29T06:55:35.218Z,0.70
2018-03-29T06:58:03.058Z,0.80
2018-03-29T07:00:31.177Z,0.73
2018-03-29T07:02:59.312Z,0.90
2018-03-29T07:05:30.281Z,1.03
2018-03-29T07:07:58.280Z,1.07
2018-03-29T07:10:26.112Z,0.60
2018-03-29T07:12:54.072Z,1.50
2018-03-29T07:15:22.079Z,0.80
2018-03-29T07:17:49.992Z,0.60
2018-03-29T07:20:17.946Z,2.63
2018-03-29T07:22:46.027Z,2.10
2018-03-29T07:25:13.850Z,1.17
2018-03-29T07:27:41.723Z,0.70
2018-03-29T07:30:09.672Z,0.80
2018-03-29T07:32:37.742Z,0.80
2018-03-29T07:35:05.557Z,0.80
2018-03-29T07:37:33.340Z,0.77
2018-03-29T07:40:01.757Z,0.97
2018-03-29T07:42:29.466Z,0.90
2018-03-29T07:44:57.185Z,2.10
2018-03-29T07:47:24.937Z,1.33
2018-03-29T07:49:52.658Z,1.07
2018-03-29T07:52:20.456Z,0.90
2018-03-29T07:54:48.107Z,0.80
2018-03-29T07:57:17.334Z,2.30
2018-03-29T07:59:45.169Z,1.10
2018-03-29T08:02:13.071Z,0.73
2018-03-29T08:04:40.964Z,0.90
2018-03-29T08:07:09.032Z,2.13
2018-03-29T08:09:36.853Z,0.87
2018-03-29T08:12:04.738Z,1.00
2018-03-29T08:14:33.408Z,0.70
2018-03-29T08:17:01.425Z,1.07
2018-03-29T08:19:29.420Z,0.93
2018-03-29T08:21:57.295Z,1.80
2018-03-29T08:24:25.400Z,1.40
2018-03-29T08:26:53.197Z,1.33
2018-03-29T08:29:21.960Z,2.63
2018-03-29T08:31:49.662Z,1.93
2018-03-29T08:34:17.276Z,1.43
2018-03-29T08:36:45.185Z,1.30
2018-03-29T08:39:14.172Z,1.30
2018-03-29T08:41:43.439Z,2.70
2018-03-29T08:44:11.979Z,1.17
2018-03-29T08:46:39.706Z,1.40
2018-03-29T08:49:07.594Z,1.63
2018-03-29T08:51:36.431Z,1.30
2018-03-29T08:54:04.843Z,1.27
2018-03-29T08:56:32.644Z,2.73
2018-03-29T08:59:01.877Z,1.37
2018-03-29T09:01:29.747Z,1.40
2018-03-29T09:03:57.929Z,1.37
2018-03-29T09:06:25.897Z,1.27
2018-03-29T09:08:53.985Z,1.40
2018-03-29T09:11:22.607Z,2.30
2018-03-29T09:13:51.575Z,1.27
2018-03-29T09:16:19.443Z,1.00
2018-03-29T09:18:48.379Z,1.93
2018-03-29T09:21:16.223Z,4.00
2018-03-29T09:23:45.137Z,1.47
2018-03-29T09:26:13.130Z,2.13
2018-03-29T09:28:41.024Z,1.80
2018-03-29T09:31:08.921Z,1.10
2018-03-29T09:33:38.090Z,1.77
2018-03-29T09:36:07.222Z,1.30
2018-03-29T09:38:36.837Z,3.73
2018-03-29T09:41:05.053Z,1.43
2018-03-29T09:43:33.152Z,1.20
2018-03-29T09:46:02.054Z,1.60
2018-03-29T09:48:30.027Z,1.50
2018-03-29T09:51:00.092Z,1.97
2018-03-29T09:53:28.869Z,1.10
2018-03-29T09:55:58.577Z,1.60
2018-03-29T09:58:27.795Z,4.07
2018-03-29T10:01:01.104Z,1.67
2018-03-29T10:03:28.842Z,1.50
2018-03-29T10:06:02.050Z,1.37
2018-03-29T10:08:29.954Z,1.73
2018-03-29T10:10:59.290Z,1.40
2018-03-29T10:13:27.230Z,1.33
2018-03-29T10:15:55.035Z,1.67
2018-03-29T10:18:22.866Z,3.60
2018-03-29T10:20:51.515Z,1.80
2018-03-29T10:23:19.286Z,1.63
2018-03-29T10:25:47.099Z,1.90
2018-03-29T10:28:14.697Z,2.03
2018-03-29T10:30:42.440Z,2.30
2018-03-29T10:33:10.328Z,2.33
2018-03-29T10:35:38.219Z,2.50
2018-03-29T10:38:06.371Z,2.20
2018-03-29T10:40:34.352Z,1.90
2018-03-29T10:43:02.439Z,2.17
2018-03-29T10:45:30.306Z,2.23
2018-03-29T10:47:59.751Z,2.00
2018-03-29T10:50:27.975Z,2.17
2018-03-29T10:52:56.716Z,3.30
2018-03-29T10:55:24.510Z,3.43
2018-03-29T10:57:52.577Z,2.37
2018-03-29T11:00:21.497Z,1.90
2018-03-29T11:02:49.289Z,2.27
2018-03-29T11:05:17.771Z,2.13
2018-03-29T11:07:46.607Z,1.90
2018-03-29T11:10:14.633Z,2.00
2018-03-29T11:12:43.055Z,2.07
2018-03-29T11:15:10.767Z,1.80
2018-03-29T11:17:39.011Z,2.30
2018-03-29T11:20:07.088Z,1.70
2018-03-29T11:22:38.369Z,2.13
2018-03-29T11:25:06.395Z,2.00
2018-03-29T11:27:35.198Z,6.37
2018-03-29T11:30:06.911Z,1.97
2018-03-29T11:32:35.056Z,2.20
2018-03-29T11:35:03.647Z,2.40
2018-03-29T11:37:31.675Z,3.20
2018-03-29T11:39:59.646Z,3.17
2018-03-29T11:42:27.445Z,4.60
2018-03-29T11:44:55.483Z,3.33
2018-03-29T11:47:24.108Z,2.00
2018-03-29T11:49:52.204Z,2.33
2018-03-29T11:52:20.728Z,2.10
2018-03-29T11:54:49.369Z,1.93
2018-03-29T11:57:17.194Z,6.40
2018-03-29T11:59:45.166Z,1.97
2018-03-29T12:02:13.937Z,2.20
2018-03-29T12:04:42.015Z,1.97
2018-03-29T12:07:09.882Z,2.10
2018-03-29T12:09:38.109Z,3.43
2018-03-29T12:12:05.989Z,2.97
2018-03-29T12:14:34.726Z,2.57
2018-03-29T12:17:02.811Z,2.77
2018-03-29T12:19:31.072Z,3.43
2018-03-29T12:22:00.112Z,3.00
2018-03-29T12:24:28.001Z,3.27
2018-03-29T12:26:56.519Z,3.70
2018-03-29T12:29:24.399Z,4.17
2018-03-29T12:31:54.349Z,3.80
2018-03-29T12:34:23.545Z,4.17
2018-03-29T12:36:53.087Z,3.90
2018-03-29T12:39:21.787Z,4.53
2018-03-29T12:41:49.742Z,3.93
2018-03-29T12:44:18.275Z,3.90
2018-03-29T12:46:46.002Z,4.00
2018-03-29T12:49:14.588Z,3.37
2018-03-29T12:51:43.487Z,6.10
2018-03-29T12:54:11.768Z,5.40
2018-03-29T12:56:52.127Z,5.33
2018-03-29T12:59:20.682Z,3.50
2018-03-29T13:01:49.232Z,3.07
2018-03-29T13:04:28.564Z,2.83
2018-03-29T13:06:56.551Z,3.03
2018-03-29T13:09:24.301Z,3.10
2018-03-29T13:11:53.269Z,2.67
2018-03-29T13:14:21.713Z,2.40
2018-03-29T13:16:49.406Z,2.60
2018-03-29T13:19:17.311Z,2.80
2018-03-29T13:21:46.457Z,2.90
2018-03-29T13:24:14.398Z,2.83
2018-03-29T13:26:42.455Z,2.93
2018-03-29T13:29:10.546Z,2.80
2018-03-29T13:31:38.454Z,2.80
2018-03-29T13:34:11.262Z,2.97
2018-03-29T13:36:40.268Z,2.83
2018-03-29T13:39:11.740Z,2.80
2018-03-29T13:41:44.020Z,3.37
2018-03-29T13:44:17.627Z,2.40
2018-03-29T13:46:45.667Z,2.70
2018-03-29T13:49:14.500Z,3.53
2018-03-29T13:51:42.595Z,3.60
2018-03-29T13:54:12.886Z,3.10
2018-03-29T13:56:41.528Z,2.97
2018-03-29T13:59:10.654Z,4.10
2018-03-29T14:01:39.474Z,2.83
2018-03-29T14:04:11.408Z,2.10
2018-03-29T14:06:42.384Z,2.70
2018-03-29T14:09:11.887Z,2.20
2018-03-29T14:11:40.360Z,3.00
2018-03-29T14:14:10.163Z,10.33
2018-03-29T14:16:38.584Z,6.70
2018-03-29T14:19:07.191Z,3.43
2018-03-29T14:21:35.172Z,3.70
2018-03-29T14:24:03.353Z,2.33
2018-03-29T14:26:32.802Z,8.20
2018-03-29T14:29:01.775Z,4.20
2018-03-29T14:31:31.349Z,7.67
2018-03-29T14:34:00.280Z,6.33
2018-03-29T14:36:27.969Z,2.77
2018-03-29T14:38:56.572Z,3.37
2018-03-29T14:41:25.356Z,2.40
2018-03-29T14:43:54.750Z,4.00
2018-03-29T14:46:23.418Z,5.30
2018-03-29T14:48:52.250Z,7.33
2018-03-29T14:51:20.082Z,2.83
2018-03-29T14:53:49.207Z,3.33
2018-03-29T14:56:17.163Z,3.23
2018-03-29T14:58:45.788Z,3.57
2018-03-29T15:01:13.842Z,3.30
2018-03-29T15:03:42.373Z,3.23
2018-03-29T15:06:10.133Z,7.67
2018-03-29T15:08:37.834Z,5.57
2018-03-29T15:11:05.734Z,4.43
2018-03-29T15:13:33.650Z,7.18
2018-03-29T15:16:01.416Z,5.87
2018-03-29T15:18:30.127Z,6.53
2018-03-29T15:20:59.947Z,6.33
2018-03-29T15:23:30.498Z,7.03
2018-03-29T15:25:59.710Z,7.77
2018-03-29T15:28:29.147Z,7.97
2018-03-29T15:30:57.953Z,7.53
2018-03-29T15:33:25.920Z,9.63
2018-03-29T15:35:53.807Z,9.77
2018-03-29T15:38:21.574Z,7.47
2018-03-29T15:40:49.578Z,8.03
2018-03-29T15:43:18.460Z,7.90
2018-03-29T15:45:46.366Z,9.10
2018-03-29T15:48:14.610Z,8.30
2018-03-29T15:50:42.377Z,9.50
2018-03-29T15:53:11.558Z,8.77
2018-03-29T15:55:39.279Z,7.90
2018-03-29T15:58:10.112Z,9.80
2018-03-29T16:00:37.835Z,8.53
2018-03-29T16:03:06.407Z,8.40
2018-03-29T16:05:34.319Z,10.83
2018-03-29T16:08:04.473Z,10.77
2018-03-29T16:10:32.372Z,7.93
2018-03-29T16:13:02.021Z,8.20
2018-03-29T16:15:29.981Z,10.20
2018-03-29T16:17:58.036Z,8.80
2018-03-29T16:20:27.128Z,9.50
2018-03-29T16:22:55.353Z,10.07
2018-03-29T16:25:23.466Z,8.60
2018-03-29T16:27:52.687Z,8.13
2018-03-29T16:30:20.558Z,8.83
2018-03-29T16:32:51.273Z,8.43
2018-03-29T16:35:19.271Z,9.53
2018-03-29T16:37:47.746Z,7.63
2018-03-29T16:40:16.410Z,8.10
2018-03-29T16:42:44.301Z,8.63
2018-03-29T16:45:13.081Z,14.57
2018-03-29T16:47:40.868Z,14.80
2018-03-29T16:50:09.654Z,19.97
2018-03-29T16:52:40.700Z,14.20
2018-03-29T16:55:10.844Z,38.20
2018-03-29T16:57:39.305Z,9.57
2018-03-29T17:00:08.385Z,10.47
2018-03-29T17:02:38.690Z,11.77
2018-03-29T17:05:06.725Z,29.67
2018-03-29T17:07:34.694Z,12.43
2018-03-29T17:10:04.571Z,14.33
2018-03-29T17:12:34.589Z,13.17
2018-03-29T17:17:35.823Z,14.50
2018-03-29T17:20:06.571Z,16.50
2018-03-29T17:22:36.882Z,15.80
2018-03-29T17:25:04.831Z,15.10
2018-03-29T17:27:33.240Z,28.10
2018-03-29T17:30:01.527Z,15.97
2018-03-29T17:32:29.622Z,12.33
2018-03-29T17:34:58.629Z,14.97
2018-03-29T17:37:26.719Z,11.63
2018-03-29T17:39:57.448Z,14.27
2018-03-29T17:42:26.589Z,46.73
2018-03-29T17:44:55.173Z,88.73
2018-03-29T17:47:23.780Z,103.53
2018-03-29T17:49:53.866Z,69.43
2018-03-29T17:52:22.527Z,38.67
2018-03-29T17:54:50.312Z,27.87
2018-03-29T17:57:19.416Z,27.13
2018-03-29T17:59:48.417Z,21.97
2018-03-29T18:02:16.339Z,34.77
2018-03-29T18:04:45.779Z,24.30
2018-03-29T18:07:13.636Z,22.00
2018-03-29T18:09:45.985Z,19.70
2018-03-29T18:12:15.656Z,79.90
2018-03-29T18:14:44.708Z,42.97
2018-03-29T18:17:14.766Z,22.60
2018-03-29T18:19:43.202Z,63.13
2018-03-29T18:22:11.205Z,37.57
2018-03-29T18:24:39.585Z,23.20
2018-03-29T18:27:07.649Z,17.83
2018-03-29T18:29:35.566Z,29.77
2018-03-29T18:32:06.410Z,38.27
2018-03-29T18:34:35.146Z,37.97
2018-03-29T18:37:04.411Z,19.97
2018-03-29T18:39:32.254Z,10.20
2018-03-29T18:41:59.956Z,10.80
2018-03-29T18:44:30.242Z,10.57
2018-03-29T18:46:58.152Z,11.10
2018-03-29T18:49:27.334Z,9.37
2018-03-29T18:51:55.726Z,8.80
2018-03-29T18:54:24.284Z,14.97
2018-03-29T18:56:53.708Z,16.67
2018-03-29T18:59:22.872Z,10.17
2018-03-29T19:01:50.849Z,19.60
2018-03-29T19:04:18.794Z,71.73
2018-03-29T19:06:46.606Z,54.47
2018-03-29T19:09:15.211Z,43.93
2018-03-29T19:11:43.039Z,18.63
2018-03-29T19:14:10.966Z,33.23
2018-03-29T19:16:38.895Z,19.43
2018-03-29T19:19:07.693Z,15.57
2018-03-29T19:21:35.591Z,12.53
2018-03-29T19:24:03.513Z,14.70
2018-03-29T19:26:31.180Z,13.17
2018-03-29T19:28:58.918Z,8.80
2018-03-29T19:31:27.550Z,10.27
2018-03-29T19:33:55.236Z,8.57
2018-03-29T19:36:23.020Z,6.33
2018-03-29T19:38:51.614Z,7.87
2018-03-29T19:41:19.889Z,4.43
2018-03-29T19:43:47.920Z,4.53
2018-03-29T19:46:15.691Z,5.17
2018-03-29T19:48:44.261Z,3.27
2018-03-29T19:51:12.001Z,3.93
2018-03-29T19:53:40.602Z,3.33
2018-03-29T19:56:08.406Z,2.00
2018-03-29T19:58:36.266Z,1.53
2018-03-29T20:01:04.025Z,1.80
2018-03-29T20:03:31.711Z,1.60
2018-03-29T20:05:59.475Z,2.70
2018-03-29T20:08:27.226Z,5.13
2018-03-29T20:10:54.993Z,1.97
2018-03-29T20:13:22.911Z,3.53
2018-03-29T20:15:51.693Z,2.27
2018-03-29T20:18:21.162Z,1.53
2018-03-29T20:20:49.846Z,3.07
2018-03-29T20:23:17.692Z,1.97
2018-03-29T20:25:46.185Z,1.87
2018-03-29T20:28:14.111Z,2.63
2018-03-29T20:30:41.918Z,3.00
2018-03-29T20:33:09.885Z,1.80
2018-03-29T20:35:37.785Z,1.70
2018-03-29T20:38:05.884Z,3.33
2018-03-29T20:40:33.787Z,13.23
2018-03-29T20:43:02.476Z,89.73
2018-03-29T20:45:30.368Z,79.80
2018-03-29T20:47:59.166Z,65.83
2018-03-29T20:50:27.208Z,12.13
2018-03-29T20:52:55.149Z,13.43
2018-03-29T20:55:23.023Z,4.27
2018-03-29T20:57:50.898Z,3.50
2018-03-29T21:00:19.959Z,4.50
2018-03-29T21:02:47.912Z,4.23
2018-03-29T21:05:16.421Z,5.87
2018-03-29T21:07:44.325Z,2.33
2018-03-29T21:10:12.179Z,3.37
2018-03-29T21:12:39.875Z,12.10
2018-03-29T21:15:07.640Z,5.77
2018-03-29T21:17:35.332Z,6.37
2018-03-29T21:20:03.100Z,29.97
2018-03-29T21:22:32.943Z,11.97
2018-03-29T21:25:01.067Z,7.87
2018-03-29T21:27:28.982Z,3.50
2018-03-29T21:29:56.908Z,9.70
2018-03-29T21:32:25.563Z,5.70
2018-03-29T21:34:55.524Z,4.33
2018-03-29T21:37:30.540Z,3.67
2018-03-29T21:39:59.255Z,3.40
2018-03-29T21:42:26.998Z,7.70
2018-03-29T21:44:54.731Z,20.10
2018-03-29T21:47:23.313Z,16.63
2018-03-29T21:49:51.152Z,18.73
2018-03-29T21:52:19.085Z,20.47
2018-03-29T21:54:47.208Z,6.87
2018-03-29T21:57:15.170Z,3.63
2018-03-29T21:59:43.112Z,3.17
2018-03-29T22:02:11.000Z,3.17
2018-03-29T22:04:38.822Z,2.97
2018-03-29T22:07:07.492Z,2.93
2018-03-29T22:09:36.404Z,2.80
2018-03-29T22:12:04.240Z,3.57
2018-03-29T22:14:32.759Z,3.60
2018-03-29T22:17:01.722Z,2.47
2018-03-29T22:19:29.396Z,2.80
2018-03-29T22:21:57.051Z,2.90
2018-03-29T22:24:25.629Z,2.97
2018-03-29T22:26:53.282Z,3.13
2018-03-29T22:29:20.870Z,2.60
2018-03-29T22:31:49.505Z,2.70
2018-03-29T22:34:17.354Z,2.53
2018-03-29T22:36:45.051Z,3.17
2018-03-29T22:39:12.727Z,2.23
2018-03-29T22:41:40.711Z,2.30
2018-03-29T22:44:08.344Z,2.30
2018-03-29T22:46:36.331Z,2.83
2018-03-29T22:49:04.432Z,3.33
2018-03-29T22:51:32.358Z,3.30
2018-03-29T22:54:00.150Z,2.67
2018-03-29T22:56:28.750Z,1.90
2018-03-29T22:58:57.252Z,2.60
2018-03-29T23:01:25.042Z,2.57
2018-03-29T23:03:52.994Z,2.70
2018-03-29T23:06:20.682Z,2.33
2018-03-29T23:08:48.499Z,2.50
2018-03-29T23:11:16.377Z,2.53
2018-03-29T23:13:44.243Z,2.73
2018-03-29T23:16:12.070Z,2.63
2018-03-29T23:18:40.650Z,4.10
2018-03-29T23:21:09.286Z,5.87
2018-03-29T23:23:37.049Z,2.97
2018-03-29T23:26:04.680Z,3.43
2018-03-29T23:28:32.650Z,3.20
2018-03-29T23:31:00.545Z,3.97
2018-03-29T23:33:28.524Z,3.03
2018-03-29T23:35:56.416Z,3.73
2018-03-29T23:38:24.162Z,3.37
2018-03-29T23:40:53.236Z,4.03
2018-03-29T23:43:21.152Z,3.23
2018-03-29T23:45:48.919Z,3.47
2018-03-29T23:48:17.634Z,4.27
2018-03-29T23:50:45.472Z,3.00
2018-03-29T23:53:13.538Z,3.00
2018-03-29T23:55:41.486Z,3.17
2018-03-29T23:58:17.206Z,3.63
